KFAM

Details ICAO KFAM
Name FARMINGTON RGNL
Region United States
Timezone America/Chicago (UTC-5.0)
Plans Departing 4
Arriving 3
Stats Elevation 947 ft / 289 m (AMSL)
Location 37.761255° -90.428499°
Runways 1
Magnetic Variation 1.317° W
Sunrise 2018-05-22 10:48:05 UTC / 2018-05-22 05:48:05 Local
Sunset 2018-05-23 01:11:35 UTC / 2018-05-22 20:11:35 Local
Advertisement - Login to hide

Runways

ID Width Length Bearing (true) Bearing (mag) Surface Threshold Offset Overrun Length
02 75 ft / 23 m 4,231 ft / 1,290 m 23.68° 25.00° Concrete 223 ft / 68 m 500 ft / 152 m
20 75 ft / 23 m 4,231 ft / 1,290 m 203.69° 205.01° Concrete 0 ft / 0 m 0 ft / 0 m

Map

Weather


0- 5 10 15 20 25 30 35+ Temperature / ° C

Clouds and Precipitation
Forecast for 2018-05-22 12:00 UTC. Updated 5 hours ago

Ground ~20,000 ft ~40,000 ft Winds

METAR

KFAM 221456Z AUTO VRB03KT 10SM 24/20 A3009 RMK AO2 SLP181 T02440200 51010

TAF

Not found

Frequencies

Recorded 119.27 MHz AWOS 3
Unicom 122.80 MHz CTAF/UNICOM
Warning: Do not use this data for real-world aviation or navigation. No guarantee of current accuracy is given.